Latest Weather Observations for Kingfish B

IDV60801

Issued at 9:02 am EST Sunday 26 April 2015 (issued every 30 minutes, with the page automatically refreshed every 10 minutes)

About weather observations | Map of weather stations | Latest weather observations for VIC | Other Formats
Station Details ID: 400139 Name: KINGFISH B (PLATFORM) Lat: -38.60 Lon: 148.19 Height: 31.4 m
Data from the previous 72 hours. | See also: Recent months for locations in Victoria
Date/Time
EST
Temp
°C
App
Temp
°C
Dew
Point
Rel
Hum
%
Delta-T
°C
Wind Press
QNH
hPa
Press
MSL
hPa
Rain
since 9 am
mm
Dir
 
Spd
km/h
Gust
km/h
Spd
kts
Gust
kts
25/03:10pm 16.8 14.5 11.6 71 2.8 WSW 15 19 8 10 1007.7 - -
25/03:00pm 16.8 13.7 11.6 71 2.8 WSW 19 22 10 12 1007.7 - -
25/02:50pm 16.9 13.8 11.7 71 2.8 WSW 19 22 10 12 1007.7 - -
25/02:40pm 17.1 14.5 11.9 71 2.8 WSW 17 20 9 11 1007.7 - -
25/02:30pm 17.1 14.9 12.0 72 2.8 WSW 15 19 8 10 1007.7 - -
25/02:20pm 17.1 14.5 12.0 72 2.8 W 17 22 9 12 1007.5 - -
25/02:10pm 17.1 13.9 11.9 71 2.8 W 20 24 11 13 1007.4 - -
25/02:00pm 17.2 14.0 12.0 71 2.9 W 20 26 11 14 1007.4 - -
25/01:50pm 17.3 13.7 12.0 71 2.9 W 22 28 12 15 1007.3 - -
25/01:40pm 17.4 13.5 12.1 71 2.9 W 24 32 13 17 1007.3 - -
25/01:30pm 17.4 12.7 12.1 71 2.9 W 28 32 15 17 1007.2 - -
25/01:20pm 17.4 13.2 12.4 72 2.8 W 26 30 14 16 1007.2 - -
25/01:10pm 17.7 13.7 12.9 73 2.7 W 26 30 14 16 1007.2 - -
25/01:00pm 17.9 14.3 13.2 74 2.6 W 24 30 13 16 1007.2 - -
25/12:40pm 18.0 14.9 13.5 75 2.6 W 22 26 12 14 1007.2 - -
25/12:30pm 18.2 15.6 13.3 73 2.8 W 19 24 10 13 1007.2 - -
25/12:20pm 18.6 15.4 13.2 71 3.1 W 22 26 12 14 1007.2 - -
25/12:10pm 19.3 17.1 13.4 68 3.4 W 17 26 9 14 1007.2 - -
25/12:00pm 19.5 19.3 13.5 68 3.4 W 7 11 4 6 1007.3 - -
25/11:50am 19.6 19.6 13.5 68 3.5 W 6 9 3 5 1007.4 - -
25/11:40am 19.7 19.5 13.6 68 3.5 W 7 9 4 5 1007.4 - -
25/11:30am 19.6 19.6 13.7 68 3.4 W 6 7 3 4 1007.5 - -
25/11:20am 19.3 19.3 13.7 70 3.2 W 6 6 3 3 1007.6 - -
25/11:10am 19.1 19.6 13.9 72 3.0 W 4 6 2 3 1007.6 - -
25/11:00am 19.1 19.6 13.9 72 3.0 W 4 6 2 3 1007.6 - -
25/10:50am 19.1 20.0 13.9 72 3.0 WSW 2 4 1 2 1007.6 - -
25/10:40am 19.1 20.3 13.8 71 3.0 CALM 0 2 0 1 1007.6 - -
25/10:30am 18.9 20.1 13.7 72 3.0 CALM 0 2 0 1 1007.6 - -
25/10:20am 19.2 20.0 13.7 70 3.1 SW 2 4 1 2 1007.6 - -
25/10:10am 19.3 20.2 14.0 71 3.1 WSW 2 2 1 1 1007.6 - -
25/10:00am 19.0 19.8 13.7 71 3.0 WSW 2 4 1 2 1007.6 - -
25/09:50am 19.1 19.5 13.7 71 3.1 WSW 4 6 2 3 1007.5 - -
25/09:40am 19.3 19.4 13.9 71 3.1 WSW 6 7 3 4 1007.5 - -
25/09:30am 19.3 19.2 13.9 71 3.1 WSW 7 9 4 5 1007.6 - -
25/09:20am 19.1 19.2 13.9 72 3.0 W 6 9 3 5 1007.6 - -
25/09:10am 18.7 18.8 13.8 73 2.8 W 6 9 3 5 1007.5 - -
25/09:00am 18.2 18.5 13.5 74 2.7 WSW 4 7 2 4 1007.5 - -
25/08:50am 17.9 18.2 13.3 74 2.6 WSW 4 7 2 4 1007.4 - -
25/08:40am 17.9 18.1 13.2 74 2.6 WSW 4 6 2 3 1007.3 - -
25/08:30am 17.8 18.4 13.1 74 2.6 SW 2 4 1 2 1007.3 - -
25/08:20am 17.8 18.4 13.0 73 2.7 SW 2 6 1 3 1007.3 - -
25/08:10am 18.3 18.6 13.4 73 2.8 SW 4 6 2 3 1007.3 - -
25/08:00am 18.2 18.6 13.6 74 2.6 SW 4 6 2 3 1007.3 - -
25/07:50am 17.6 18.2 13.2 75 2.5 SW 2 13 1 7 1007.3 - -
25/07:40am 17.7 17.9 13.2 75 2.5 SSW 4 6 2 3 1007.3 - -
25/07:30am 17.6 17.8 13.2 75 2.5 SSW 4 6 2 3 1007.2 - -
25/07:20am 17.4 17.6 13.2 76 2.4 SSW 4 6 2 3 1007.2 - -
25/07:10am 17.5 17.8 13.4 77 2.3 SSW 4 7 2 4 1007.1 - -
25/07:00am 17.2 17.5 13.3 78 2.2 SSW 4 7 2 4 1007.0 - -
25/06:50am 17.2 17.1 13.3 78 2.2 SSW 6 9 3 5 1006.9 - -
25/06:40am 17.2 17.0 13.5 79 2.1 SSW 7 9 4 5 1006.8 - -
25/06:30am 16.9 16.7 13.5 80 1.9 SSW 7 11 4 6 1006.6 - -
25/06:20am 16.9 16.3 13.6 81 1.9 SSW 9 13 5 7 1006.4 - -
25/06:10am 16.7 16.1 13.5 81 1.8 SSW 9 11 5 6 1006.2 - -
25/06:00am 16.8 16.2 13.5 81 1.9 SSW 9 13 5 7 1006.1 - -
25/05:50am 16.7 16.4 13.3 80 1.9 SSW 7 11 4 6 1005.9 - -
25/05:40am 16.6 16.3 13.2 80 1.9 SSW 7 9 4 5 1005.8 - -
25/05:30am 16.6 15.9 13.3 81 1.9 SSW 9 11 5 6 1005.8 - -
25/05:20am 16.6 16.3 13.3 81 1.9 SSW 7 11 4 6 1005.6 - -
25/05:10am 16.7 16.0 13.2 80 2.0 SSW 9 11 5 6 1005.5 - -
25/05:00am 16.7 15.7 13.4 81 1.9 SSW 11 13 6 7 1005.5 - -
25/04:50am 16.8 15.8 13.4 80 1.9 SSW 11 13 6 7 1005.4 - -
25/04:40am 16.8 16.2 13.4 80 1.9 SW 9 11 5 6 1005.5 - -
25/04:30am 16.8 15.8 13.3 80 2.0 SW 11 15 6 8 1005.4 - -
25/04:20am 16.8 15.4 13.4 80 1.9 SW 13 17 7 9 1005.4 - -
25/04:10am 16.7 14.9 13.4 81 1.9 SW 15 17 8 9 1005.3 - -
25/04:00am 16.7 15.0 13.6 82 1.7 SW 15 17 8 9 1005.3 - -
25/03:50am 16.8 15.5 13.8 82 1.7 SW 13 15 7 8 1005.4 - -
25/03:40am 16.7 15.1 13.8 83 1.6 SW 15 17 8 9 1005.3 - -
25/03:30am 16.8 15.2 13.9 83 1.6 SW 15 17 8 9 1005.3 - -
25/03:20am 16.8 15.6 13.9 83 1.6 SW 13 15 7 8 1005.3 - -
25/03:10am 16.9 15.7 14.0 83 1.7 SW 13 15 7 8 1005.2 - -
25/03:00am 17.0 15.5 14.1 83 1.7 SW 15 17 8 9 1005.2 - -
25/02:50am 17.0 15.5 14.1 83 1.7 SW 15 19 8 10 1005.2 - -
25/02:40am 16.9 15.4 14.1 83 1.6 SW 15 19 8 10 1005.1 - -
25/02:30am 17.0 15.5 14.2 83 1.6 SW 15 17 8 9 1005.1 - -
25/02:20am 17.1 16.0 14.2 83 1.7 SW 13 17 7 9 1005.1 - -
25/02:10am 17.2 16.1 14.4 83 1.6 SW 13 17 7 9 1005.0 - -
25/02:00am 17.2 16.1 14.4 83 1.6 SW 13 15 7 8 1005.0 - -
25/01:50am 17.3 16.2 14.3 82 1.7 SW 13 15 7 8 1005.0 - -
25/01:40am 17.4 15.9 14.3 82 1.8 SW 15 19 8 10 1005.0 - -
25/01:30am 17.5 16.4 14.2 81 1.9 SW 13 17 7 9 1005.0 - -
25/01:20am 17.6 16.1 14.2 80 1.9 SW 15 19 8 10 1004.9 - -
25/01:00am 17.6 15.2 13.8 78 2.2 SW 19 20 10 11 1004.9 - -
25/12:50am 17.6 15.1 13.6 77 2.3 WSW 19 22 10 12 1004.8 - -
25/12:40am 17.7 14.2 13.5 76 2.4 WSW 24 28 13 15 1004.8 - -
25/12:30am 17.7 14.6 13.5 76 2.4 WSW 22 28 12 15 1004.7 - -
25/12:20am 17.7 15.0 13.4 76 2.4 WSW 20 26 11 14 1004.7 - -
25/12:10am 17.7 14.6 13.4 76 2.4 WSW 22 24 12 13 1004.6 - -
25/12:00am 17.7 15.0 13.5 76 2.4 WSW 20 26 11 14 1004.6 - -
 
Date/Time
EST
Temp
°C
App
Temp
°C
Dew
Point
Rel
Hum
%
Delta-T
°C
Wind Press
QNH
hPa
Press
MSL
hPa
Rain
since 9 am
mm
Dir
 
Spd
km/h
Gust
km/h
Spd
kts
Gust
kts
24/11:50pm 17.8 15.1 13.4 75 2.5 WSW 20 26 11 14 1004.6 - -
24/11:40pm 17.8 14.7 13.3 75 2.5 WSW 22 26 12 14 1004.6 - -
24/11:30pm 17.8 14.6 13.2 74 2.6 WSW 22 28 12 15 1004.7 - -
24/11:20pm 17.7 14.5 13.0 74 2.6 WSW 22 28 12 15 1004.7 - -
24/11:10pm 17.8 14.6 13.0 73 2.7 WSW 22 28 12 15 1004.6 - -
24/11:00pm 18.1 14.5 13.1 72 2.8 WSW 24 28 13 15 1004.6 - -
24/10:50pm 18.3 15.2 13.4 73 2.8 W 22 26 12 14 1004.6 - -
24/10:40pm 17.9 14.3 13.0 73 2.8 WSW 24 28 13 15 1004.6 - -
24/10:30pm 17.9 14.3 12.9 72 2.8 WSW 24 30 13 16 1004.5 - -
24/10:20pm 17.9 14.3 12.9 72 2.8 WSW 24 30 13 16 1004.5 - -
24/10:10pm 17.9 14.6 12.7 71 2.9 WSW 22 28 12 15 1004.5 - -
24/10:00pm 17.9 14.5 12.6 71 3.0 WSW 22 30 12 16 1004.4 - -
24/09:50pm 17.8 14.4 12.4 70 3.0 WSW 22 28 12 15 1004.3 - -
24/09:40pm 17.9 14.9 12.7 71 2.9 WSW 20 26 11 14 1004.2 - -
24/09:30pm 18.1 15.2 12.9 71 2.9 WSW 20 24 11 13 1004.3 - -
24/09:20pm 18.3 15.6 13.0 71 3.0 WSW 19 22 10 12 1004.4 - -
24/09:10pm 18.4 15.7 13.0 71 3.0 WSW 19 22 10 12 1004.4 - -
24/09:00pm 18.4 15.6 13.1 71 3.0 WSW 20 24 11 13 1004.4 - -
24/08:50pm 18.5 16.4 13.5 72 2.8 WSW 17 22 9 12 1004.4 - -
24/08:40pm 18.4 17.1 13.8 74 2.6 WSW 13 19 7 10 1004.4 - -
24/08:30pm 18.3 17.4 13.8 75 2.6 WSW 11 17 6 9 1004.5 - -
24/08:20pm 18.2 17.7 13.9 76 2.5 SW 9 13 5 7 1004.4 - -
24/08:10pm 18.2 17.0 14.0 76 2.4 SW 13 17 7 9 1004.3 - -
24/08:00pm 18.1 16.9 14.0 77 2.3 SW 13 15 7 8 1004.2 - -
24/07:50pm 18.1 16.9 14.1 77 2.3 SW 13 17 7 9 1004.2 - -
24/07:40pm 18.0 17.3 14.4 79 2.1 SW 11 15 6 8 1004.3 - -
24/07:30pm 18.0 18.0 14.3 79 2.1 SW 7 9 4 5 1004.2 - -
24/07:20pm 17.8 17.5 14.3 80 2.0 SW 9 11 5 6 1004.1 - -
24/07:10pm 17.7 17.7 14.3 80 2.0 SW 7 11 4 6 1004.1 - -
24/07:00pm 17.7 17.8 14.4 81 1.9 SW 7 11 4 6 1003.9 - -
24/06:50pm 17.7 17.5 14.7 82 1.7 SW 9 13 5 7 1004.0 - -
24/06:40pm 17.6 17.8 14.8 84 1.6 SW 7 9 4 5 1003.9 - -
24/06:30pm 17.7 18.0 15.0 84 1.6 SW 7 11 4 6 1003.9 - -
24/06:20pm 17.8 18.4 15.2 85 1.5 SW 6 9 3 5 1003.8 - -
24/06:10pm 17.9 18.5 15.3 85 1.5 SW 6 9 3 5 1003.8 - -
24/06:00pm 17.9 18.9 15.3 85 1.5 SW 4 6 2 3 1003.7 - -
24/05:50pm 17.9 18.3 15.3 85 1.5 SW 7 9 4 5 1003.6 - -
24/05:40pm 18.1 18.2 15.4 84 1.6 SW 9 11 5 6 1003.5 - -
24/05:30pm 18.2 18.6 15.4 84 1.6 WSW 7 11 4 6 1003.4 - -
24/05:20pm 18.2 18.3 15.4 84 1.6 WSW 9 11 5 6 1003.3 - -
24/05:10pm 18.3 18.3 15.3 83 1.8 WSW 9 11 5 6 1003.2 - -
24/05:00pm 18.4 18.8 15.2 81 1.9 WSW 7 11 4 6 1003.0 - -
24/04:50pm 18.5 18.9 15.2 81 1.9 WSW 7 9 4 5 1003.0 - -
24/04:40pm 18.9 19.3 15.4 80 2.1 W 7 9 4 5 1002.8 - -
24/04:30pm 19.0 19.7 15.6 80 2.0 W 6 9 3 5 1002.6 - -
24/04:20pm 19.1 19.8 15.6 80 2.1 W 6 7 3 4 1002.5 - -
24/04:10pm 19.3 20.1 15.9 81 2.0 W 6 7 3 4 1002.4 - -
24/04:00pm 19.1 19.8 15.6 80 2.1 W 6 7 3 4 1002.3 - -
24/03:50pm 19.1 19.6 15.6 80 2.1 W 7 11 4 6 1002.3 - -
24/03:40pm 19.1 19.2 15.6 80 2.1 W 9 13 5 7 1002.2 - -
24/03:30pm 19.0 19.1 15.6 80 2.0 WNW 9 11 5 6 1002.0 - -
24/03:20pm 18.9 19.0 15.6 81 2.0 WNW 9 11 5 6 1002.0 - -
24/03:10pm 18.8 18.9 15.4 80 2.0 WNW 9 13 5 7 1002.0 - -
24/03:00pm 18.9 18.6 15.5 80 2.0 WNW 11 13 6 7 1002.0 - -
24/02:50pm 18.9 18.6 15.4 80 2.1 WNW 11 13 6 7 1002.0 - -
24/02:40pm 18.9 18.2 15.3 79 2.1 WNW 13 15 7 8 1001.9 - -
24/02:30pm 19.1 19.2 15.4 79 2.2 WNW 9 13 5 7 1001.8 - -
24/02:20pm 19.1 19.2 15.4 79 2.2 WNW 9 11 5 6 1001.8 - -
24/02:10pm 19.2 19.3 15.4 78 2.2 WNW 9 9 5 5 1001.9 - -
24/01:50pm 19.4 19.2 15.6 78 2.3 WNW 11 15 6 8 1002.0 - -
24/01:40pm 19.3 19.4 15.6 79 2.2 WNW 9 13 5 7 1002.0 - -
24/01:30pm 19.2 19.7 15.6 79 2.1 W 7 11 4 6 1001.9 - -
24/01:20pm 19.2 19.4 15.7 80 2.1 W 9 13 5 7 1002.0 - -
24/01:10pm 19.1 19.3 15.7 80 2.0 W 9 11 5 6 1002.1 - -
24/01:00pm 19.2 19.4 15.8 81 2.0 W 9 11 5 6 1002.2 - -
24/12:50pm 19.2 20.0 15.9 81 2.0 W 6 11 3 6 1002.2 - -
24/12:30pm 18.9 20.6 16.3 85 1.6 WNW 2 4 1 2 1002.3 - -
24/12:20pm 18.7 20.9 16.5 87 1.3 CALM 0 2 0 1 1002.4 - -
24/12:10pm 17.9 19.1 15.8 87 1.2 W 4 6 2 3 1002.4 - -
24/12:00pm 17.7 19.1 15.5 87 1.3 WSW 2 6 1 3 1002.4 - -
24/11:50am 17.9 18.4 15.5 86 1.4 WSW 7 11 4 6 1002.7 - -
24/11:40am 18.0 18.5 15.6 86 1.4 W 7 11 4 6 1002.9 - -
24/11:30am 18.2 18.8 15.7 85 1.5 W 7 9 4 5 1003.0 - -
24/11:20am 18.3 18.9 15.7 85 1.5 W 7 11 4 6 1003.2 - -
24/11:10am 18.4 18.6 15.8 85 1.5 WNW 9 11 5 6 1003.4 - -
24/11:00am 18.5 18.4 15.9 85 1.5 WNW 11 13 6 7 1003.5 - -
24/10:50am 18.4 18.7 15.9 85 1.5 WNW 9 11 5 6 1003.5 - -
24/10:40am 18.4 18.7 16.1 86 1.4 WNW 9 11 5 6 1003.6 - -
24/10:30am 18.5 18.1 16.2 86 1.4 WNW 13 15 7 8 1003.7 - -
24/10:20am 18.6 17.9 16.4 87 1.3 WNW 15 17 8 9 1003.8 - -
24/10:10am 18.4 17.6 16.2 87 1.3 W 15 20 8 11 1003.9 - -
24/10:00am 18.4 17.6 16.0 86 1.4 W 15 19 8 10 1004.0 - -
24/09:50am 18.5 16.9 16.0 85 1.5 W 19 20 10 11 1004.0 - -
24/09:40am 18.6 17.0 15.9 84 1.6 W 19 20 10 11 1004.1 - -
24/09:30am 18.7 17.1 15.9 84 1.7 W 19 22 10 12 1004.1 - -
24/09:20am 19.1 17.0 16.2 83 1.7 W 22 26 12 14 1004.2 - -
24/09:10am 19.3 17.7 16.6 84 1.6 W 20 22 11 12 1004.2 - -
24/09:00am 19.1 17.8 16.7 86 1.4 WNW 19 20 10 11 1004.2 - -
24/08:50am 19.0 18.0 16.7 86 1.4 WNW 17 20 9 11 1004.2 - -
24/08:40am 18.7 18.9 16.7 88 1.2 WNW 11 17 6 9 1004.2 - -
24/08:30am 18.2 19.0 16.4 89 1.1 WNW 7 11 4 6 1004.3 - -
24/08:20am 17.9 18.6 16.2 90 1.0 NW 7 11 4 6 1004.5 - -
24/08:10am 17.9 18.7 16.3 90 1.0 NW 7 9 4 5 1004.5 - -
24/08:00am 17.8 18.8 16.3 91 0.9 NW 6 11 3 6 1004.5 - -
24/07:50am 17.5 18.4 16.1 91 0.8 NNW 6 9 3 5 1004.6 - -
24/07:40am 17.3 18.8 15.8 91 0.9 N 2 7 1 4 1004.5 - -
24/07:30am 17.3 18.5 15.9 91 0.8 N 4 7 2 4 1004.6 - -
24/07:20am 17.4 18.6 16.0 91 0.8 NNE 4 7 2 4 1004.6 - -
24/07:10am 17.3 18.5 16.0 92 0.8 NE 4 6 2 3 1004.6 - -
24/07:00am 17.2 18.8 15.9 92 0.8 NE 2 4 1 2 1004.6 - -
24/06:50am 17.1 18.2 15.7 91 0.8 NE 4 6 2 3 1004.6 - -
24/06:40am 17.0 18.1 15.7 92 0.8 NE 4 6 2 3 1004.6 - -
24/06:30am 17.1 17.9 15.8 92 0.8 NE 6 11 3 6 1004.5 - -
24/06:20am 17.1 17.7 15.8 92 0.8 NE 7 9 4 5 1004.5 - -
24/06:10am 17.2 17.8 15.8 91 0.8 NE 7 9 4 5 1004.4 - -
24/06:00am 17.1 17.7 15.8 92 0.8 NE 7 9 4 5 1004.4 - -
24/05:50am 17.1 17.9 15.8 92 0.8 NE 6 9 3 5 1004.5 - -
24/05:40am 17.2 17.5 15.9 92 0.8 NE 9 11 5 6 1004.4 - -
24/05:30am 17.3 17.6 16.1 93 0.7 NE 9 11 5 6 1004.4 - -
24/05:20am 17.2 18.8 16.0 93 0.7 NE 2 11 1 6 1004.3 - -
24/05:10am 17.1 19.1 15.9 93 0.7 CALM 0 2 0 1 1004.4 - -
24/05:00am 17.0 18.9 15.8 93 0.7 CALM 0 0 0 0 1004.6 - -
24/04:50am 17.0 18.9 15.8 93 0.7 CALM 0 0 0 0 1004.6 - -
24/04:40am 17.0 18.5 15.8 93 0.7 ENE 2 4 1 2 1004.5 - -
24/04:30am 17.1 18.3 15.8 92 0.8 ENE 4 6 2 3 1004.5 - -
24/04:20am 17.0 18.5 15.8 93 0.7 ENE 2 6 1 3 1004.6 - -
24/04:10am 17.0 18.6 15.9 93 0.6 ENE 2 4 1 2 1004.6 - -
24/04:00am 17.1 19.1 16.0 93 0.6 CALM 0 4 0 2 1004.8 - -
24/03:50am 17.2 19.2 16.0 93 0.7 CALM 0 2 0 1 1004.9 - -
24/03:40am 17.2 19.2 16.0 93 0.7 CALM 0 2 0 1 1005.0 - -
24/03:30am 17.2 19.2 16.0 93 0.7 CALM 0 2 0 1 1005.1 - -
24/03:20am 17.1 18.7 16.0 93 0.6 NE 2 6 1 3 1005.0 - -
24/03:10am 17.0 19.0 15.9 93 0.6 CALM 0 2 0 1 1005.1 - -
24/03:00am 16.9 18.8 15.8 93 0.6 CALM 0 2 0 1 1005.2 - -
24/02:50am 16.8 18.3 15.7 93 0.6 NE 2 4 1 2 1005.4 - -
24/02:40am 16.6 18.4 15.5 93 0.6 CALM 0 2 0 1 1005.4 - -
24/02:30am 16.5 18.3 15.5 94 0.6 CALM 0 2 0 1 1005.6 - -
24/02:20am 16.7 18.6 15.7 94 0.6 CALM 0 2 0 1 1005.7 - -
24/02:10am 16.8 18.3 15.8 94 0.6 NE 2 4 1 2 1005.9 - -
24/02:00am 16.9 18.5 16.0 94 0.5 NE 2 4 1 2 1006.1 - -
24/01:50am 17.0 18.3 16.1 94 0.5 NE 4 6 2 3 1006.2 - -
24/01:40am 17.1 18.0 16.2 94 0.5 NE 6 6 3 3 1006.3 - -
24/01:30am 17.2 18.6 16.3 94 0.5 NE 4 6 2 3 1006.5 - -
24/01:20am 17.1 18.5 16.4 96 0.4 NNE 4 7 2 4 1006.7 - -
24/01:10am 17.1 18.8 16.3 95 0.5 NE 2 4 1 2 1006.9 - -
24/01:00am 17.1 18.8 16.3 95 0.5 NE 2 6 1 3 1007.0 - -
24/12:50am 17.0 18.7 16.3 96 0.4 NNE 2 4 1 2 1007.2 - -
24/12:40am 17.0 18.7 16.3 96 0.4 NNE 2 4 1 2 1007.3 - -
24/12:30am 16.9 18.6 16.2 96 0.4 NNE 2 4 1 2 1007.5 - -
24/12:20am 16.9 18.2 16.2 96 0.4 N 4 7 2 4 1007.6 - -
24/12:00am 16.8 17.2 16.2 96 0.4 NNE 9 11 5 6 1007.7 - -
 
Date/Time
EST
Temp
°C
App
Temp
°C
Dew
Point
Rel
Hum
%
Delta-T
°C
Wind Press
QNH
hPa
Press
MSL
hPa
Rain
since 9 am
mm
Dir
 
Spd
km/h
Gust
km/h
Spd
kts
Gust
kts
23/11:50pm 16.8 17.7 16.2 96 0.4 NNE 6 9 3 5 1008.0 - -
23/11:40pm 16.7 17.6 16.1 96 0.4 NNE 6 9 3 5 1008.2 - -
23/11:30pm 16.7 17.4 16.1 96 0.4 NNE 7 11 4 6 1008.4 - -
23/11:20pm 16.6 16.9 16.1 97 0.3 NNE 9 13 5 7 1008.6 - -
23/11:10pm 16.6 17.3 16.0 96 0.4 NE 7 13 4 7 1008.7 - -
23/11:00pm 16.3 16.9 15.7 96 0.4 NNE 7 11 4 6 1008.8 - -
23/10:50pm 16.3 17.4 15.7 96 0.4 NE 4 7 2 4 1008.9 - -
23/10:40pm 16.3 17.8 15.7 96 0.4 NE 2 6 1 3 1009.0 - -
23/10:30pm 16.4 17.6 15.8 96 0.4 NE 4 6 2 3 1009.1 - -
23/10:20pm 16.7 18.4 16.1 96 0.4 ENE 2 6 1 3 1009.2 - -
23/10:10pm 16.5 18.5 15.9 96 0.4 CALM 0 4 0 2 1009.3 - -
23/10:00pm 16.4 18.3 15.8 96 0.4 CALM 0 4 0 2 1009.5 - -
23/09:50pm 16.8 18.9 16.2 96 0.4 CALM 0 4 0 2 1009.6 - -
23/09:40pm 16.7 18.4 16.1 96 0.4 E 2 6 1 3 1009.8 - -
23/09:30pm 16.8 18.5 16.2 96 0.4 ESE 2 7 1 4 1010.0 - -
23/09:20pm 16.8 18.5 16.2 96 0.4 SE 2 7 1 4 1010.2 - -
23/09:10pm 16.7 17.6 16.1 96 0.4 SSE 6 9 3 5 1010.4 - -
23/09:00pm 16.8 17.5 16.1 96 0.4 SE 7 15 4 8 1010.5 - -
23/08:50pm 16.9 17.3 16.2 96 0.4 SE 9 15 5 8 1010.6 - -
23/08:40pm 16.8 18.1 16.1 96 0.4 ESE 4 11 2 6 1010.7 - -
23/08:30pm 16.8 18.1 16.1 96 0.4 ESE 4 13 2 7 1010.9 - -
23/08:20pm 16.8 17.1 16.1 96 0.4 ESE 9 13 5 7 1010.8 - -
23/08:10pm 16.8 16.4 16.1 96 0.4 ESE 13 19 7 10 1010.9 - -
23/08:00pm 16.8 16.0 16.1 96 0.4 ESE 15 19 8 10 1010.9 - -
23/07:50pm 16.8 15.6 16.1 96 0.4 ESE 17 20 9 11 1011.0 - -
23/07:40pm 16.9 15.4 16.2 96 0.4 ESE 19 24 10 13 1011.1 - -
23/07:30pm 16.8 16.0 16.2 96 0.4 ESE 15 20 8 11 1011.3 - -
23/07:20pm 16.8 15.2 16.1 96 0.4 ESE 19 22 10 12 1011.3 - -
23/07:10pm 16.7 14.9 16.0 96 0.4 SE 20 24 11 13 1011.5 - -
23/07:00pm 16.7 14.9 16.1 96 0.4 SE 20 24 11 13 1011.6 - -
23/06:50pm 16.6 14.8 16.0 96 0.4 SE 20 26 11 14 1011.7 - -
23/06:40pm 16.6 15.0 15.9 96 0.4 ESE 19 24 10 13 1011.7 - -
23/06:30pm 16.4 14.1 15.8 96 0.4 ESE 22 28 12 15 1011.8 - -
23/06:20pm 16.4 13.7 15.7 96 0.4 SE 24 30 13 16 1012.0 - -
23/06:10pm 16.4 13.3 15.7 96 0.4 SE 26 30 14 16 1012.2 - -
23/06:00pm 16.5 14.2 15.8 96 0.4 SE 22 30 12 16 1012.3 - -
23/05:50pm 16.5 14.2 15.7 95 0.5 SE 22 28 12 15 1012.3 - -
23/05:40pm 16.5 13.8 15.7 95 0.5 SE 24 32 13 17 1012.3 - -
23/05:30pm 16.5 13.4 15.7 95 0.5 SE 26 32 14 17 1012.3 - -
23/05:20pm 16.6 13.9 15.7 94 0.5 SE 24 32 13 17 1012.4 - -
23/05:10pm 16.5 13.4 15.7 95 0.5 SE 26 33 14 18 1012.3 - -
23/05:00pm 16.5 13.0 15.6 94 0.5 SE 28 33 15 18 1012.3 - -
23/04:50pm 16.6 13.1 15.6 94 0.6 SE 28 33 15 18 1012.3 - -
23/04:40pm 16.6 12.8 15.7 94 0.5 SE 30 39 16 21 1012.2 - -
23/04:30pm 16.6 13.1 15.6 94 0.6 SE 28 33 15 18 1012.1 - -
23/04:20pm 16.5 13.0 15.5 94 0.6 SE 28 33 15 18 1012.2 - -
23/04:10pm 16.5 13.0 15.5 94 0.6 SE 28 33 15 18 1012.2 - -
23/04:00pm 16.4 13.2 15.4 94 0.6 SE 26 32 14 17 1012.2 - -
23/03:50pm 16.5 12.6 15.4 93 0.6 SE 30 35 16 19 1012.2 - -
23/03:40pm 16.5 13.3 15.4 93 0.6 SE 26 32 14 17 1012.3 - -
23/03:30pm 16.6 13.1 15.4 93 0.7 SE 28 32 15 17 1012.4 - -
23/03:20pm 16.6 13.1 15.4 93 0.7 SE 28 35 15 19 1012.6 - -
23/03:10pm 16.7 13.2 15.4 92 0.8 SE 28 35 15 19 1012.7 - -
23/03:00pm 16.7 13.2 15.4 92 0.8 SE 28 33 15 18 1012.7 - -
23/02:50pm 16.8 12.9 15.4 91 0.8 SE 30 35 16 19 1012.8 - -
23/02:40pm 16.8 12.9 15.4 91 0.8 SE 30 37 16 20 1012.9 - -
23/02:30pm 16.9 13.0 15.5 91 0.8 SE 30 33 16 18 1012.9 - -
23/02:20pm 16.8 12.5 15.4 91 0.8 SE 32 35 17 19 1013.0 - -
23/02:10pm 16.7 12.4 15.3 91 0.8 SE 32 37 17 20 1013.1 - -
23/02:00pm 16.8 12.5 15.4 91 0.8 SE 32 37 17 20 1013.3 - -
23/01:50pm 16.8 13.3 15.4 91 0.8 SE 28 33 15 18 1013.4 - -
23/01:40pm 16.7 13.1 15.3 91 0.8 SE 28 35 15 19 1013.5 - -
23/01:30pm 16.6 13.0 15.3 92 0.8 SE 28 33 15 18 1013.6 - -
23/01:20pm 16.6 12.6 15.3 92 0.8 SE 30 35 16 19 1013.6 - -
23/01:10pm 16.5 12.1 15.2 92 0.8 SE 32 35 17 19 1013.7 - -
23/01:00pm 16.4 12.0 15.2 93 0.7 SE 32 37 17 20 1013.7 - -
23/12:50pm 16.4 12.4 15.2 93 0.7 ESE 30 37 16 20 1013.7 - -
23/12:40pm 16.1 12.0 14.9 93 0.7 SE 30 35 16 19 1013.8 - -
23/12:30pm 16.2 12.1 14.9 92 0.7 SE 30 35 16 19 1014.1 - -
23/12:20pm 16.2 11.6 14.7 91 0.9 SE 32 37 17 20 1014.2 - -
23/12:10pm 16.3 12.1 14.7 90 0.9 ESE 30 37 16 20 1014.3 - -
23/12:00pm 16.4 11.8 14.6 89 1.0 ESE 32 35 17 19 1014.5 - -
23/11:50am 16.5 11.9 14.5 88 1.1 ESE 32 46 17 25 1014.7 - -
23/11:40am 16.8 13.0 14.6 87 1.3 SE 28 35 15 19 1014.9 - -
23/11:30am 16.8 13.3 14.4 86 1.4 SE 26 32 14 17 1015.2 - -
23/11:20am 17.2 12.9 14.3 83 1.7 SE 30 39 16 21 1015.4 - -
23/11:10am 17.2 13.7 14.4 83 1.6 SE 26 32 14 17 1015.6 - -
23/11:00am 17.3 14.2 14.5 83 1.6 SE 24 33 13 18 1015.9 - -
23/10:50am 17.4 13.5 14.4 82 1.7 SE 28 32 15 17 1016.1 - -
23/10:40am 17.4 13.9 14.4 82 1.7 SE 26 30 14 16 1016.3 - -
23/10:30am 17.3 13.8 14.6 84 1.6 ESE 26 32 14 17 1016.5 - -
23/10:20am 17.2 13.5 14.9 86 1.3 ESE 28 33 15 18 1016.6 - -
23/10:00am 16.9 14.3 15.0 88 1.1 SE 22 28 12 15 1016.9 - -
23/09:50am 16.6 13.6 14.7 88 1.1 SE 24 30 13 16 1017.0 - -
23/09:40am 16.4 11.8 14.5 88 1.1 SE 32 39 17 21 1017.1 - -
23/09:30am 16.9 13.1 14.7 87 1.3 ESE 28 39 15 21 1017.1 - -
23/09:20am 16.8 13.3 14.6 87 1.3 ESE 26 33 14 18 1017.1 - -
23/09:10am 16.6 12.7 14.4 87 1.3 ESE 28 33 15 18 1017.1 - -

Other Formats:

Comma delimited format used in spreadsheet applications
http://www.bom.gov.au/fwo/IDV60801/IDV60801.55039.axf

JavaScript Object Notation format (JSON) in row-major order
http://www.bom.gov.au/fwo/IDV60801/IDV60801.55039.json